Weather at Cork Airport

Public forecast

Using degrees Celsius for public forecast. Weather courtesy of forecast.io.

Current aviation weather report (METAR) for Cork Airport

2024/02/29 08:30 (retrieved 32 minutes ago)

EICK 290830Z 23005KT 9999 FEW024 BKN110 03/01 Q1004 NOSIG

Aviation forecast (TAF) for Cork Airport

2024/02/29 06:09 (retrieved 3 hours ago)

TAF TAF EICK 290500Z 2906/0106 22005KT 9999 FEW025 TEMPO 2908/2919 -SHRA FEW018CB BECMG 2910/2912 26012KT PROB40 TEMPO 2912/2919 3000 -SHRAGS SCT018CB PROB30 TEMPO 2912/2916 26015G25KT BECMG 2916/2918 21012KT TEMPO 2919/2924 4000 -RA BKN010 BECMG 2922/2924 28012KT BECMG 0104/0106 25005KT